Evans Junction, Iowa
Current Conditions -  °F | °C
As of 9:55 PM on Wednesday 22 Oct 2014 (Local Time) from KPEA Reporting Station
Clear Clear  
Wind Chill: 55°   Ceiling: Unl
Heat Index: 55°   Visibility: 10mi
Dew Point: 42°   Wind: 12mph
Humidity: 62%   Direction: 150°SSE
Pressure: 30.16"   Gusts: NA
Location:  41.2952°N, 92.7652°W
Report Text: KPEA 230255Z AUTO 15010KT 10SM CLR 13/06 A3016 RMK AO2 T01260056
Loading
Personal Weather Stations






























Interactive Weather Map
Tropical Storm Tracking
New forecast layout! Learn more

10-Day Weather Forecast

Advertisements
Track Severe Weather on mobile